Time;durP1;ratioP1;P1;durP2;ratioP2;P2;SDS_P1;SDS_P2;PMS_P1;PMS_P2;Temp;Humidity;BMP_temperature;BMP_pressure;BME280_temperature;BME280_humidity;BME280_pressure;Samples;Min_cycle;Max_cycle;Signal;HPM_P1;HPM_P2
2024/01/28 00:01:27;;;;;;;9.30;4.10;;;;;;;3.49;83.86;100541.52;226381;1272;22640;-77
2024/01/28 00:06:31;;;;;;;11.40;4.50;;;;;;;3.50;83.90;100537.11;226318;1264;22538;-76
2024/01/28 00:11:33;;;;;;;12.20;4.90;;;;;;;3.50;83.75;100536.59;226487;1264;22699;-77
2024/01/28 00:16:35;;;;;;;11.30;3.90;;;;;;;3.50;83.89;100539.40;226490;1271;22548;-76
2024/01/28 00:21:37;;;;;;;13.90;5.20;;;;;;;3.50;83.91;100534.16;226361;1268;22499;-76
2024/01/28 00:26:41;;;;;;;17.50;5.30;;;;;;;3.51;84.00;100537.92;226212;1274;22546;-77
2024/01/28 00:31:43;;;;;;;16.30;5.20;;;;;;;3.52;83.85;100537.69;226397;1268;22547;-76
2024/01/28 00:36:45;;;;;;;12.90;4.50;;;;;;;3.51;83.89;100549.73;226466;1274;22923;-76
2024/01/28 00:41:47;;;;;;;11.90;4.10;;;;;;;3.52;83.84;100553.34;226322;1270;22579;-76
2024/01/28 00:46:50;;;;;;;11.50;4.60;;;;;;;3.53;83.80;100552.59;226374;1274;23058;-76
2024/01/28 00:51:52;;;;;;;13.80;4.30;;;;;;;3.53;83.75;100554.16;226360;1273;22583;-76
2024/01/28 00:56:54;;;;;;;12.70;4.40;;;;;;;3.55;83.83;100561.20;226525;1270;22981;-77
2024/01/28 01:01:56;;;;;;;10.40;3.50;;;;;;;3.57;83.75;100564.52;226553;1270;24224;-77
2024/01/28 01:06:58;;;;;;;12.80;4.50;;;;;;;3.58;83.62;100563.92;226279;1270;25306;-76
2024/01/28 01:12:02;;;;;;;9.50;3.90;;;;;;;3.59;83.50;100563.01;226411;1273;22539;-76
2024/01/28 01:17:04;;;;;;;10.40;3.60;;;;;;;3.60;83.47;100561.92;226368;1273;24303;-76
2024/01/28 01:22:07;;;;;;;9.40;3.10;;;;;;;3.61;83.41;100564.44;226436;1273;24240;-76
2024/01/28 01:27:09;;;;;;;9.50;2.80;;;;;;;3.62;83.12;100561.77;226367;1274;25430;-76
2024/01/28 01:32:11;;;;;;;13.90;3.70;;;;;;;3.62;83.31;100560.52;226500;1270;22626;-77
2024/01/28 01:37:27;;;;;;;11.40;3.10;;;;;;;3.63;83.20;100567.45;226514;1274;22555;-76
2024/01/28 01:42:30;;;;;;;10.40;3.00;;;;;;;3.62;83.31;100573.06;226293;1274;25262;-76
2024/01/28 01:47:32;;;;;;;9.30;3.10;;;;;;;3.63;83.07;100570.56;226506;1274;22559;-76
2024/01/28 01:52:34;;;;;;;11.80;3.60;;;;;;;3.63;83.08;100568.84;226336;1271;22623;-77
2024/01/28 01:57:39;;;;;;;10.50;3.60;;;;;;;3.62;83.07;100573.77;226291;1274;25387;-76
2024/01/28 02:02:47;;;;;;;8.50;3.10;;;;;;;3.61;83.17;100584.45;226444;1270;22539;-77
2024/01/28 02:07:49;;;;;;;7.80;3.50;;;;;;;3.61;83.23;100590.95;226245;1274;22545;-76
2024/01/28 02:12:52;;;;;;;12.10;3.30;;;;;;;3.58;83.41;100592.68;226454;1271;22571;-76
2024/01/28 02:17:55;;;;;;;12.80;3.90;;;;;;;3.53;83.38;100590.55;226293;1274;22545;-77
2024/01/28 02:22:58;;;;;;;13.20;3.50;;;;;;;3.49;83.29;100597.29;226380;1257;22566;-76
2024/01/28 02:28:00;;;;;;;10.90;3.70;;;;;;;3.44;83.57;100603.55;226226;1274;22569;-76
2024/01/28 02:33:02;;;;;;;8.50;3.60;;;;;;;3.36;83.86;100601.60;226266;1274;22583;-77
2024/01/28 02:38:04;;;;;;;11.00;3.50;;;;;;;3.28;84.15;100607.34;226280;1270;22554;-75
2024/01/28 02:43:07;;;;;;;9.00;3.30;;;;;;;3.20;84.41;100608.85;226369;1270;22538;-76
2024/01/28 02:48:09;;;;;;;11.60;4.50;;;;;;;3.16;84.47;100602.30;226331;1271;24255;-76
2024/01/28 02:53:11;;;;;;;13.20;4.60;;;;;;;3.14;84.77;100604.51;226224;1274;22596;-76
2024/01/28 02:58:13;;;;;;;9.50;4.40;;;;;;;3.14;84.66;100607.65;226526;1271;22554;-77
2024/01/28 03:03:15;;;;;;;15.80;4.20;;;;;;;3.15;84.62;100614.20;226411;1272;22565;-76
2024/01/28 03:08:17;;;;;;;9.40;3.90;;;;;;;3.17;84.82;100615.16;226493;1268;22536;-76
2024/01/28 03:13:19;;;;;;;11.00;3.30;;;;;;;3.18;84.63;100618.20;226328;1271;22902;-75
2024/01/28 03:18:21;;;;;;;8.70;3.60;;;;;;;3.18;84.73;100615.77;226363;1268;25308;-76
2024/01/28 03:23:23;;;;;;;14.40;4.10;;;;;;;3.16;85.02;100620.56;226443;1271;22937;-76
2024/01/28 03:28:25;;;;;;;12.20;3.80;;;;;;;3.15;85.04;100631.30;226503;1270;22539;-76
2024/01/28 03:33:28;;;;;;;15.70;4.70;;;;;;;3.13;85.03;100630.00;226335;1273;22591;-77
2024/01/28 03:38:31;;;;;;;12.30;3.80;;;;;;;3.13;85.05;100628.45;226559;1271;22576;-76
2024/01/28 03:43:32;;;;;;;10.10;4.00;;;;;;;3.12;85.23;100637.55;226263;1274;22594;-77
2024/01/28 03:48:35;;;;;;;13.70;3.90;;;;;;;3.13;85.31;100632.30;226374;1274;22546;-77
2024/01/28 03:53:37;;;;;;;10.40;4.10;;;;;;;3.10;85.37;100626.41;226262;1271;22581;-76
2024/01/28 03:58:39;;;;;;;13.20;4.90;;;;;;;3.07;85.58;100628.50;226297;1273;22550;-76
2024/01/28 04:03:41;;;;;;;12.90;4.90;;;;;;;3.06;85.56;100619.67;226369;1272;22577;-76
2024/01/28 04:08:43;;;;;;;14.00;4.90;;;;;;;3.05;85.61;100619.55;226350;1274;22536;-76
2024/01/28 04:13:45;;;;;;;10.60;4.70;;;;;;;3.07;85.72;100629.73;226540;1270;22547;-75
2024/01/28 04:18:47;;;;;;;17.30;5.90;;;;;;;3.07;85.78;100633.20;226412;1273;25960;-76
2024/01/28 04:23:51;;;;;;;14.00;6.30;;;;;;;3.06;85.83;100634.27;226402;1274;22682;-76
2024/01/28 04:28:53;;;;;;;13.10;6.20;;;;;;;3.06;85.76;100634.14;226436;1273;22543;-76
2024/01/28 04:33:57;;;;;;;15.00;5.70;;;;;;;3.06;85.86;100632.71;226293;1274;22904;-76
2024/01/28 04:38:59;;;;;;;13.70;6.10;;;;;;;3.08;85.96;100640.60;226367;1271;22643;-76
2024/01/28 04:44:01;;;;;;;14.00;5.10;;;;;;;3.09;85.87;100647.34;226404;1273;22533;-76
2024/01/28 04:49:03;;;;;;;14.30;5.50;;;;;;;3.10;85.86;100651.60;226336;1274;24285;-75
2024/01/28 04:54:05;;;;;;;16.30;5.70;;;;;;;3.11;85.76;100659.38;226515;1271;24251;-76
2024/01/28 04:59:08;;;;;;;12.70;5.50;;;;;;;3.13;85.84;100666.20;226316;1273;22561;-76
2024/01/28 05:04:09;;;;;;;19.00;5.80;;;;;;;3.15;85.70;100671.82;226418;1274;22554;-76
2024/01/28 05:09:12;;;;;;;13.00;5.10;;;;;;;3.17;85.79;100677.66;226449;1270;22521;-74
2024/01/28 05:14:14;;;;;;;12.50;5.10;;;;;;;3.17;85.82;100680.07;226272;1274;22574;-75
2024/01/28 05:19:16;;;;;;;17.10;5.50;;;;;;;3.17;85.90;100680.77;226189;1274;22537;-76
2024/01/28 05:24:18;;;;;;;14.70;5.70;;;;;;;3.17;85.83;100682.33;226294;1273;22539;-76
2024/01/28 05:29:20;;;;;;;11.90;5.60;;;;;;;3.19;85.83;100691.64;226472;1271;22924;-77
2024/01/28 05:34:22;;;;;;;15.80;6.00;;;;;;;3.21;85.87;100698.64;226297;1274;22553;-76
2024/01/28 05:39:24;;;;;;;14.00;5.30;;;;;;;3.24;85.84;100697.98;226173;1274;22535;-77
2024/01/28 05:44:26;;;;;;;15.50;5.70;;;;;;;3.28;85.86;100702.55;226317;1274;23319;-76
2024/01/28 05:49:29;;;;;;;18.10;5.80;;;;;;;3.30;85.78;100707.50;226276;1274;22542;-75
2024/01/28 05:54:32;;;;;;;14.00;5.60;;;;;;;3.32;85.68;100712.43;226297;1271;22555;-76
2024/01/28 05:59:35;;;;;;;16.60;5.60;;;;;;;3.32;85.75;100723.55;226529;1274;23264;-76
2024/01/28 06:04:37;;;;;;;17.70;6.20;;;;;;;3.33;85.69;100733.97;226489;1264;22536;-76
2024/01/28 06:09:39;;;;;;;13.00;5.90;;;;;;;3.33;85.68;100740.41;226275;1274;22553;-77
2024/01/28 06:14:41;;;;;;;21.30;7.60;;;;;;;3.34;85.89;100742.29;226265;1274;22535;-76
2024/01/28 06:19:44;;;;;;;20.00;8.10;;;;;;;3.34;85.79;100748.20;226423;1274;22589;-76
2024/01/28 06:24:46;;;;;;;17.70;8.30;;;;;;;3.32;85.76;100753.16;226308;1274;22550;-76
2024/01/28 06:29:49;;;;;;;16.80;8.20;;;;;;;3.30;85.57;100760.95;226450;1274;26191;-76
2024/01/28 06:34:52;;;;;;;19.00;8.70;;;;;;;3.27;85.63;100759.59;226507;1271;22546;-75
2024/01/28 06:39:56;;;;;;;21.80;9.50;;;;;;;3.27;85.68;100757.66;226413;1274;22976;-76
2024/01/28 06:44:59;;;;;;;19.50;8.60;;;;;;;3.28;85.75;100757.77;226274;1274;22544;-75
2024/01/28 06:50:01;;;;;;;20.20;8.30;;;;;;;3.32;86.00;100758.42;226417;1273;22547;-77
2024/01/28 06:55:05;;;;;;;21.90;8.40;;;;;;;3.30;85.65;100763.60;226197;1274;22567;-77
2024/01/28 07:00:10;;;;;;;18.30;7.60;;;;;;;3.27;85.59;100765.54;226818;1273;22543;-76
2024/01/28 07:05:13;;;;;;;13.50;7.50;;;;;;;3.24;85.69;100763.25;226318;1274;22603;-76
2024/01/28 07:10:15;;;;;;;17.90;7.20;;;;;;;3.29;86.07;100764.65;226524;1273;22543;-76
2024/01/28 07:15:17;;;;;;;14.80;6.10;;;;;;;3.34;85.85;100763.89;226534;1270;25373;-77
2024/01/28 07:20:19;;;;;;;19.00;7.10;;;;;;;3.31;85.86;100776.94;226224;1271;22554;-77
2024/01/28 07:25:21;;;;;;;20.30;7.60;;;;;;;3.31;85.85;100786.66;226528;1271;22705;-77
2024/01/28 07:30:23;;;;;;;20.00;9.00;;;;;;;3.38;86.17;100790.27;226495;1274;22588;-76
2024/01/28 07:35:24;;;;;;;19.70;8.40;;;;;;;3.45;86.12;100789.14;226433;1274;24325;-77
2024/01/28 07:40:27;;;;;;;21.20;9.00;;;;;;;3.48;86.11;100788.60;226252;1274;22554;-76
2024/01/28 07:45:29;;;;;;;16.30;8.60;;;;;;;3.47;85.84;100789.19;226489;1271;22537;-76
2024/01/28 07:50:31;;;;;;;20.20;9.40;;;;;;;3.48;85.78;100782.99;226429;1271;22539;-76
2024/01/28 07:55:33;;;;;;;26.20;13.70;;;;;;;3.54;86.02;100782.16;226382;1272;22574;-77
2024/01/28 08:00:35;;;;;;;26.50;10.10;;;;;;;3.62;85.82;100779.21;226517;1270;22572;-76
2024/01/28 08:05:37;;;;;;;22.70;9.30;;;;;;;3.70;85.96;100781.66;226553;1271;22565;-76
2024/01/28 08:10:39;;;;;;;21.60;8.70;;;;;;;3.74;85.94;100785.23;226199;1274;22562;-76
2024/01/28 08:15:41;;;;;;;17.20;8.60;;;;;;;3.80;86.00;100794.98;226518;1271;22540;-77
2024/01/28 08:20:43;;;;;;;20.50;8.80;;;;;;;3.83;85.91;100805.41;226448;1271;22574;-76
2024/01/28 08:25:46;;;;;;;18.10;8.30;;;;;;;3.92;86.03;100809.23;226508;1266;24254;-78
2024/01/28 08:30:48;;;;;;;20.70;9.30;;;;;;;4.00;85.76;100806.06;226220;1274;22527;-76
2024/01/28 08:35:50;;;;;;;21.70;9.10;;;;;;;4.06;85.60;100809.72;226395;1274;22551;-75
2024/01/28 08:40:52;;;;;;;20.80;8.90;;;;;;;4.13;85.61;100804.95;226334;1271;230671;-76
2024/01/28 08:45:54;;;;;;;22.10;9.20;;;;;;;4.23;85.70;100805.33;226494;1273;22543;-76
2024/01/28 08:50:57;;;;;;;23.70;10.90;;;;;;;4.36;85.66;100814.79;226454;1272;24209;-76
2024/01/28 08:55:59;;;;;;;20.50;9.70;;;;;;;4.53;85.72;100818.08;226393;1266;23112;-76
2024/01/28 09:01:01;;;;;;;23.10;9.70;;;;;;;4.68;85.37;100827.53;226263;1274;22532;-76
2024/01/28 09:06:05;;;;;;;25.90;8.40;;;;;;;4.78;85.60;100834.36;226392;1274;25384;-77
2024/01/28 09:11:09;;;;;;;20.80;7.60;;;;;;;4.85;85.15;100839.51;226218;1274;22637;-77
2024/01/28 09:16:11;;;;;;;21.10;9.40;;;;;;;4.84;84.81;100842.88;226261;1274;22555;-76
2024/01/28 09:21:13;;;;;;;18.80;7.90;;;;;;;4.88;84.69;100853.08;226527;1271;23616;-77
2024/01/28 09:26:15;;;;;;;18.50;7.90;;;;;;;4.95;84.37;100852.79;226425;1271;22544;-78
2024/01/28 09:31:17;;;;;;;20.00;8.20;;;;;;;5.03;84.43;100847.04;226362;1274;22544;-75
2024/01/28 09:36:19;;;;;;;15.60;7.40;;;;;;;5.09;83.85;100848.58;226185;1274;22571;-78
2024/01/28 09:41:41;;;;;;;19.40;8.10;;;;;;;5.21;84.21;100846.15;226439;1273;24822;-78
2024/01/28 09:46:44;;;;;;;15.60;7.60;;;;;;;5.33;83.86;100848.89;226378;1273;24279;-78
2024/01/28 09:51:46;;;;;;;21.30;7.90;;;;;;;5.33;83.32;100845.92;226541;1271;22552;-78
2024/01/28 09:56:49;;;;;;;15.50;7.30;;;;;;;5.36;82.94;100839.04;226165;1274;22532;-77
2024/01/28 10:01:52;;;;;;;15.30;6.90;;;;;;;5.45;83.23;100839.34;226224;1274;22534;-76
2024/01/28 10:06:57;;;;;;;16.70;6.50;;;;;;;5.57;83.29;100838.45;226237;1268;22584;-76
2024/01/28 10:12:00;;;;;;;15.20;6.90;;;;;;;5.66;82.85;100826.80;226178;1274;25258;-76
2024/01/28 10:17:03;;;;;;;16.50;7.30;;;;;;;5.76;82.96;100826.67;226379;1274;24452;-77
2024/01/28 10:22:06;;;;;;;18.80;7.50;;;;;;;5.93;83.38;100826.02;226557;1267;22539;-77
2024/01/28 10:27:14;;;;;;;13.90;6.10;;;;;;;6.09;82.71;100826.82;226246;1274;22564;-76
2024/01/28 10:32:17;;;;;;;12.10;5.10;;;;;;;6.25;82.24;100826.01;226422;1274;22614;-77
2024/01/28 10:37:20;;;;;;;10.60;4.70;;;;;;;6.34;82.12;100826.57;226269;1274;22639;-78
2024/01/28 10:42:25;;;;;;;7.30;3.90;;;;;;;6.42;81.57;100829.85;226291;1274;24299;-78
2024/01/28 10:47:31;;;;;;;8.80;3.50;;;;;;;6.55;81.13;100832.20;226264;1274;22550;-77
2024/01/28 10:52:35;;;;;;;10.10;3.30;;;;;;;6.63;80.76;100827.41;226274;1273;22594;-76
2024/01/28 10:57:39;;;;;;;7.10;3.30;;;;;;;6.65;80.28;100826.08;226208;1274;22560;-76
2024/01/28 11:02:42;;;;;;;7.80;3.50;;;;;;;6.73;80.67;100828.77;226328;1274;22548;-77
2024/01/28 11:07:47;;;;;;;6.60;3.90;;;;;;;6.79;80.13;100830.34;226577;1271;23012;-77
2024/01/28 11:12:52;;;;;;;8.80;3.40;;;;;;;6.77;79.36;100827.45;226221;1274;23039;-77
2024/01/28 11:17:55;;;;;;;8.20;3.20;;;;;;;6.82;79.50;100821.13;226504;1274;22612;-77
2024/01/28 11:23:01;;;;;;;5.90;3.30;;;;;;;6.82;79.46;100821.48;226465;1274;22561;-75
2024/01/28 11:28:07;;;;;;;6.30;3.40;;;;;;;6.84;79.33;100823.29;226268;1274;25387;-76
2024/01/28 11:33:15;;;;;;;7.90;3.70;;;;;;;6.91;78.64;100823.23;226388;1274;22558;-76
2024/01/28 11:38:24;;;;;;;8.40;3.50;;;;;;;6.93;78.66;100820.67;226374;1274;23274;-76
2024/01/28 11:43:26;;;;;;;5.90;2.20;;;;;;;6.99;78.48;100818.56;226354;1274;22605;-76
2024/01/28 11:48:28;;;;;;;6.00;2.50;;;;;;;7.00;77.97;100819.42;226386;1273;22615;-78
2024/01/28 11:53:30;;;;;;;8.30;3.00;;;;;;;6.94;77.71;100813.42;226408;1274;22547;-75
2024/01/28 11:58:32;;;;;;;6.00;3.10;;;;;;;6.89;77.50;100815.15;226239;1274;22607;-76
2024/01/28 12:03:34;;;;;;;7.90;3.60;;;;;;;6.82;77.47;100820.11;226165;1274;24834;-75
2024/01/28 12:08:43;;;;;;;7.10;3.70;;;;;;;6.73;77.65;100815.14;226393;1273;22559;-76
2024/01/28 12:13:46;;;;;;;8.30;3.70;;;;;;;6.69;77.96;100819.42;226277;1274;23053;-76
2024/01/28 12:18:48;;;;;;;11.30;4.60;;;;;;;6.70;78.21;100823.92;226514;1274;22644;-76
2024/01/28 12:23:52;;;;;;;8.90;4.60;;;;;;;6.65;77.48;100818.18;226403;1274;24336;-77
2024/01/28 12:28:56;;;;;;;9.10;4.00;;;;;;;6.58;77.30;100815.67;226370;1274;22551;-77
2024/01/28 12:33:58;;;;;;;8.60;3.80;;;;;;;6.47;77.07;100818.83;226299;1274;23153;-76
2024/01/28 12:39:00;;;;;;;8.00;3.30;;;;;;;6.46;77.63;100815.58;226385;1272;23042;-77
2024/01/28 12:44:03;;;;;;;6.20;3.00;;;;;;;6.47;77.28;100820.91;226410;1274;22754;-76
2024/01/28 12:49:05;;;;;;;7.00;3.30;;;;;;;6.43;77.10;100812.29;227084;1272;25262;-75
2024/01/28 12:54:13;;;;;;;5.60;2.80;;;;;;;6.40;77.34;100810.89;226366;1273;22551;-77
2024/01/28 12:59:15;;;;;;;8.30;3.80;;;;;;;6.26;76.75;100810.05;226293;1274;22577;-76
2024/01/28 13:04:17;;;;;;;9.50;3.50;;;;;;;6.15;77.06;100809.07;226349;1273;22560;-76
2024/01/28 13:09:20;;;;;;;6.90;2.60;;;;;;;5.98;76.99;100813.42;226516;1274;22534;-76
2024/01/28 13:14:22;;;;;;;10.40;4.00;;;;;;;5.82;76.79;100805.95;226515;1273;22630;-75
2024/01/28 13:19:25;;;;;;;8.40;4.20;;;;;;;5.71;77.39;100804.83;226210;1274;22517;-78
2024/01/28 13:24:27;;;;;;;11.00;4.90;;;;;;;5.65;77.87;100803.26;226360;1274;22547;-76
2024/01/28 13:29:35;;;;;;;13.20;5.80;;;;;;;5.66;78.25;100801.80;226405;1273;22543;-76
2024/01/28 13:34:38;;;;;;;10.20;5.10;;;;;;;5.68;78.29;100804.13;226408;1274;22547;-76
2024/01/28 13:39:40;;;;;;;11.40;4.90;;;;;;;5.70;78.32;100797.55;226526;1274;22581;-76
2024/01/28 13:44:42;;;;;;;11.40;5.00;;;;;;;5.68;77.97;100796.83;226419;1273;23060;-77
2024/01/28 13:49:44;;;;;;;22.50;12.00;;;;;;;5.66;78.28;100799.02;226418;1273;22537;-76
2024/01/28 13:54:46;;;;;;;14.70;7.00;;;;;;;5.69;78.72;100802.29;226369;1273;22543;-76
2024/01/28 13:59:48;;;;;;;17.30;7.40;;;;;;;5.66;78.41;100799.35;226214;1274;22575;-76
2024/01/28 14:04:50;;;;;;;15.00;7.30;;;;;;;5.63;78.58;100800.44;226554;1274;22650;-77
2024/01/28 14:09:53;;;;;;;15.20;6.90;;;;;;;5.63;78.71;100799.23;226363;1274;24459;-76
2024/01/28 14:14:55;;;;;;;13.80;6.60;;;;;;;5.63;78.44;100806.95;226266;1274;22556;-76
2024/01/28 14:19:57;;;;;;;14.30;6.10;;;;;;;5.60;78.34;100810.81;226366;1273;22643;-76
2024/01/28 14:24:59;;;;;;;13.90;6.80;;;;;;;5.55;78.45;100809.42;226501;1270;22562;-77
2024/01/28 14:30:01;;;;;;;11.70;6.50;;;;;;;5.56;78.24;100807.10;226354;1273;22563;-76
2024/01/28 14:35:03;;;;;;;11.70;6.10;;;;;;;5.56;78.44;100806.17;226451;1273;22540;-78
2024/01/28 14:40:09;;;;;;;10.40;6.00;;;;;;;5.52;78.54;100807.04;226336;1274;22554;-76
2024/01/28 14:45:11;;;;;;;12.70;6.90;;;;;;;5.43;78.87;100804.14;226262;1274;23040;-77
2024/01/28 14:50:14;;;;;;;21.80;10.70;;;;;;;5.38;78.84;100803.98;226430;1272;22560;-77
2024/01/28 14:55:17;;;;;;;19.10;9.60;;;;;;;5.34;78.94;100805.98;226469;1273;22632;-77
2024/01/28 15:00:19;;;;;;;15.00;9.10;;;;;;;5.29;79.21;100808.28;226234;1274;22531;-77
2024/01/28 15:05:22;;;;;;;18.30;10.90;;;;;;;5.22;79.23;100810.96;226336;1273;22689;-77
2024/01/28 15:10:24;;;;;;;22.30;12.00;;;;;;;5.19;79.47;100810.71;226408;1273;22569;-77
2024/01/28 15:15:34;;;;;;;26.10;11.70;;;;;;;5.12;79.33;100806.96;226350;1272;22571;-77
2024/01/28 15:20:36;;;;;;;;;;;;;;;5.06;79.37;100805.27;226401;1267;22544;-76
2024/01/28 15:25:38;;;;;;;18.50;10.20;;;;;;;4.99;79.62;100811.35;226382;1273;22563;-77
2024/01/28 15:30:47;;;;;;;14.30;8.40;;;;;;;4.91;80.14;100821.13;226278;1274;22549;-78
2024/01/28 15:35:52;;;;;;;22.50;12.90;;;;;;;4.88;80.40;100825.36;226219;1274;22530;-76
2024/01/28 15:40:54;;;;;;;27.20;14.50;;;;;;;4.82;80.11;100826.61;226208;1274;22586;-77
2024/01/28 15:45:57;;;;;;;28.50;16.50;;;;;;;4.74;80.40;100825.23;226536;1262;22547;-76
2024/01/28 15:51:01;;;;;;;42.40;21.60;;;;;;;4.67;80.23;100837.58;226432;1273;22577;-76
2024/01/28 15:56:07;;;;;;;39.10;20.40;;;;;;;4.61;80.57;100844.04;226292;1274;24224;-77
2024/01/28 16:01:10;;;;;;;29.90;16.80;;;;;;;4.58;80.64;100846.84;226118;1274;22740;-76
2024/01/28 16:06:12;;;;;;;28.70;16.30;;;;;;;4.55;80.85;100841.31;226459;1270;22548;-78
2024/01/28 16:11:17;;;;;;;27.00;14.80;;;;;;;4.53;81.05;100832.71;226303;1274;22543;-77
2024/01/28 16:16:19;;;;;;;29.20;16.60;;;;;;;4.51;81.02;100828.64;226456;1274;22556;-76
2024/01/28 16:21:21;;;;;;;31.40;17.30;;;;;;;4.48;81.32;100819.95;226363;1274;22737;-77
2024/01/28 16:26:23;;;;;;;30.90;18.20;;;;;;;4.49;81.22;100816.88;226358;1274;22577;-77
2024/01/28 16:31:25;;;;;;;34.80;21.20;;;;;;;4.53;81.42;100821.16;226376;1274;22663;-77
2024/01/28 16:36:27;;;;;;;38.40;23.80;;;;;;;4.56;81.23;100825.86;226266;1274;22558;-77
2024/01/28 16:41:29;;;;;;;45.80;26.70;;;;;;;4.58;81.45;100826.79;226431;1273;22563;-76
2024/01/28 16:46:33;;;;;;;46.80;25.50;;;;;;;4.58;81.11;100827.46;226249;1274;22559;-77
2024/01/28 16:51:39;;;;;;;52.90;30.60;;;;;;;4.58;80.98;100827.34;226345;1272;22554;-77
2024/01/28 16:56:41;;;;;;;55.80;32.30;;;;;;;4.61;81.43;100835.66;226250;1270;22554;-76
2024/01/28 17:01:45;;;;;;;53.60;29.30;;;;;;;4.65;81.44;100835.60;226275;1271;22563;-77
2024/01/28 17:06:47;;;;;;;40.90;23.80;;;;;;;4.67;81.35;100835.65;226648;1274;22695;-77
2024/01/28 17:11:50;;;;;;;44.00;26.20;;;;;;;4.65;80.85;100830.88;226398;1273;23100;-78
2024/01/28 17:16:52;;;;;;;44.70;27.30;;;;;;;4.64;81.37;100830.23;226318;1270;22554;-78
2024/01/28 17:21:55;;;;;;;66.70;37.90;;;;;;;4.64;81.09;100833.24;226417;1272;23019;-78
2024/01/28 17:26:58;;;;;;;53.80;32.50;;;;;;;4.61;81.06;100835.81;226266;1274;24260;-78
2024/01/28 17:32:02;;;;;;;49.80;28.20;;;;;;;4.56;81.05;100841.05;226348;1274;22560;-77
2024/01/28 17:37:04;;;;;;;51.90;32.00;;;;;;;4.46;80.97;100839.42;226273;1274;22559;-78
2024/01/28 17:42:11;;;;;;;47.40;30.30;;;;;;;4.32;81.11;100842.23;226352;1273;25754;-77
2024/01/28 17:47:13;;;;;;;50.80;32.00;;;;;;;4.16;81.05;100846.61;226315;1268;25351;-77
2024/01/28 17:52:15;;;;;;;60.10;34.60;;;;;;;4.01;81.02;100846.66;226532;1270;22547;-77
2024/01/28 17:57:17;;;;;;;53.40;32.00;;;;;;;3.88;81.35;100836.80;226470;1274;22692;-78
2024/01/28 18:02:20;;;;;;;43.90;25.90;;;;;;;3.74;81.38;100837.52;226255;1274;22547;-77
2024/01/28 18:07:22;;;;;;;46.40;27.50;;;;;;;3.55;81.38;100841.84;226253;1271;24248;-77
2024/01/28 18:12:24;;;;;;;45.10;27.30;;;;;;;3.36;81.38;100837.38;226271;1274;22568;-76
2024/01/28 18:17:27;;;;;;;47.20;28.30;;;;;;;3.18;81.53;100833.94;226402;1274;22585;-76
2024/01/28 18:22:31;;;;;;;49.40;31.30;;;;;;;3.02;81.75;100827.10;226370;1272;22608;-78
2024/01/28 18:27:33;;;;;;;54.40;33.60;;;;;;;2.85;81.47;100829.95;226315;1270;22569;-76
2024/01/28 18:32:38;;;;;;;67.30;38.20;;;;;;;2.70;81.66;100829.43;226321;1269;23020;-76
2024/01/28 18:37:43;;;;;;;66.00;38.00;;;;;;;2.57;81.62;100830.20;226221;1274;22561;-76
2024/01/28 18:42:46;;;;;;;75.70;44.00;;;;;;;2.44;81.64;100834.73;226192;1274;22588;-77
2024/01/28 18:47:49;;;;;;;97.60;53.20;;;;;;;2.31;81.67;100829.89;226358;1273;22571;-78
2024/01/28 18:52:51;;;;;;;99.50;54.60;;;;;;;2.22;82.05;100822.79;226377;1274;25514;-76
2024/01/28 18:57:53;;;;;;;102.50;57.90;;;;;;;2.15;82.26;100817.57;226272;1274;22909;-77
2024/01/28 19:02:55;;;;;;;108.70;62.40;;;;;;;2.09;82.36;100816.68;226511;1270;22635;-76
2024/01/28 19:07:57;;;;;;;94.50;51.60;;;;;;;2.01;82.28;100816.63;226465;1271;22561;-77
2024/01/28 19:12:59;;;;;;;83.80;48.70;;;;;;;1.90;82.34;100811.48;226336;1268;22981;-77
2024/01/28 19:18:02;;;;;;;77.90;45.60;;;;;;;1.80;82.32;100809.78;226264;1270;25348;-76
2024/01/28 19:23:06;;;;;;;68.30;42.10;;;;;;;1.69;82.42;100804.82;226548;1267;24245;-76
2024/01/28 19:28:11;;;;;;;71.40;42.30;;;;;;;1.56;82.49;100808.80;226368;1272;22950;-77
2024/01/28 19:33:16;;;;;;;57.70;36.00;;;;;;;1.45;82.61;100805.43;226454;1271;22559;-77
2024/01/28 19:38:20;;;;;;;59.80;34.30;;;;;;;1.33;82.60;100810.51;226520;1270;22754;-75
2024/01/28 19:43:23;;;;;;;54.90;33.60;;;;;;;1.22;82.77;100809.55;226448;1266;22550;-76
2024/01/28 19:48:25;;;;;;;55.80;34.00;;;;;;;1.13;82.77;100812.80;226338;1272;22562;-76
2024/01/28 19:53:27;;;;;;;60.00;34.80;;;;;;;1.04;82.87;100806.28;226318;1273;25517;-77
2024/01/28 19:58:29;;;;;;;73.90;44.70;;;;;;;0.98;83.01;100807.15;226270;1274;22650;-77
2024/01/28 20:03:33;;;;;;;103.80;60.10;;;;;;;0.90;82.88;100806.31;226438;1271;23018;-77
2024/01/28 20:08:36;;;;;;;130.20;71.40;;;;;;;0.84;83.19;100807.85;226253;1273;22554;-76
2024/01/28 20:13:38;;;;;;;154.60;83.10;;;;;;;0.84;83.56;100806.30;226336;1274;22585;-76
2024/01/28 20:18:39;;;;;;;130.50;73.20;;;;;;;0.80;83.35;100797.30;226364;1271;24455;-77
2024/01/28 20:23:42;;;;;;;109.50;59.20;;;;;;;0.73;83.46;100796.59;226282;1269;22561;-76
2024/01/28 20:28:46;;;;;;;107.40;56.70;;;;;;;0.68;83.44;100787.29;226306;1274;22557;-77
2024/01/28 20:33:50;;;;;;;79.70;43.60;;;;;;;0.64;83.67;100787.33;226198;1273;22564;-76
2024/01/28 20:38:53;;;;;;;70.00;40.40;;;;;;;0.63;83.74;100790.48;226458;1272;22594;-76
2024/01/28 20:43:54;;;;;;;57.90;34.30;;;;;;;0.60;83.80;100794.09;226202;1273;155271;-76
2024/01/28 20:48:56;;;;;;;59.00;34.00;;;;;;;0.62;83.98;100798.16;226533;1268;22604;-77
2024/01/28 20:53:59;;;;;;;63.60;36.60;;;;;;;0.61;83.88;100793.55;226241;1257;22560;-76
2024/01/28 20:59:01;;;;;;;74.20;41.40;;;;;;;0.56;83.80;100795.72;226313;1273;22562;-76
2024/01/28 21:04:03;;;;;;;78.40;43.30;;;;;;;0.50;84.12;100791.83;226421;1268;22534;-76
2024/01/28 21:09:05;;;;;;;94.30;49.20;;;;;;;0.44;83.86;100795.80;226368;1271;22580;-76
2024/01/28 21:14:08;;;;;;;90.50;45.00;;;;;;;0.37;83.89;100802.01;226279;1268;23061;-76
2024/01/28 21:19:10;;;;;;;83.10;44.00;;;;;;;0.31;84.03;100803.33;226385;1273;22719;-74
2024/01/28 21:24:12;;;;;;;102.10;50.00;;;;;;;0.27;84.06;100808.19;226368;1269;23139;-74
2024/01/28 21:29:14;;;;;;;103.30;50.70;;;;;;;0.25;84.19;100804.31;226143;1274;26468;-76
2024/01/28 21:34:16;;;;;;;112.20;54.80;;;;;;;0.22;83.99;100793.38;226300;1273;22543;-76
2024/01/28 21:39:20;;;;;;;97.40;48.70;;;;;;;0.16;84.15;100795.39;226562;1267;22608;-75
2024/01/28 21:44:24;;;;;;;87.90;45.60;;;;;;;0.09;83.96;100791.92;226233;1274;22583;-76
2024/01/28 21:49:27;;;;;;;90.20;49.00;;;;;;;0.01;84.05;100797.80;226267;1273;26533;-77
2024/01/28 21:54:29;;;;;;;85.90;46.10;;;;;;;-0.06;84.14;100793.45;226397;1270;22708;-76
2024/01/28 21:59:31;;;;;;;88.60;49.30;;;;;;;-0.15;84.14;100799.76;226099;1274;24746;-76
2024/01/28 22:04:33;;;;;;;86.80;46.90;;;;;;;-0.24;84.32;100799.49;226255;1274;22557;-78
2024/01/28 22:09:35;;;;;;;70.20;42.10;;;;;;;-0.33;84.04;100797.66;226291;1274;23744;-75
2024/01/28 22:14:37;;;;;;;77.70;44.70;;;;;;;-0.41;84.50;100793.33;226252;1270;25531;-76
2024/01/28 22:19:39;;;;;;;73.80;42.60;;;;;;;-0.48;84.53;100800.58;226289;1273;22557;-75
2024/01/28 22:24:42;;;;;;;76.60;42.80;;;;;;;-0.54;84.66;100800.69;226334;1273;24929;-76
2024/01/28 22:29:44;;;;;;;76.50;44.40;;;;;;;-0.61;84.68;100800.49;226310;1274;23209;-77
2024/01/28 22:34:47;;;;;;;83.40;48.10;;;;;;;-0.69;84.55;100801.16;226139;1274;23621;-77
2024/01/28 22:39:49;;;;;;;100.40;52.10;;;;;;;-0.74;84.63;100808.83;226398;1271;24248;-77
2024/01/28 22:44:51;;;;;;;100.00;53.30;;;;;;;-0.78;84.99;100814.55;226360;1273;22547;-77
2024/01/28 22:49:55;;;;;;;100.80;53.70;;;;;;;-0.82;84.52;100812.14;226293;1274;22531;-77
2024/01/28 22:54:58;;;;;;;109.10;54.70;;;;;;;-0.85;84.99;100806.71;226271;1272;22582;-77
2024/01/28 23:00:00;;;;;;;104.90;55.20;;;;;;;-0.85;85.12;100798.77;226242;1273;22761;-76
2024/01/28 23:05:04;;;;;;;98.50;53.00;;;;;;;-0.88;85.17;100790.76;226166;1274;22552;-76